Terminal Aerodrome Forecast
Issued by NWS Charleston, WV

Home | Current Version | Previous Version | Text Only | Print | Product List | Glossary On
Versions: 1 2 3 4 5 6 7 8 9 10 11 12 13 14 15 16 17 18 19 20 21 22 23
343
FTUS41 KRLX 261120
TAFBKW
TAF
KBKW 261120Z 2612/2712 16008KT P6SM BKN050
     FM261600 16010G19KT P6SM -SHRA BKN027
     FM262000 16011G21KT P6SM SHRA BKN040
     FM270600 19007KT P6SM -SHRA BKN025=

USA.gov is the U.S. government's official web portal to all federal, state and local government web resources and services.